Time;durP1;ratioP1;P1;durP2;ratioP2;P2;SDS_P1;SDS_P2;PMS_P1;PMS_P2;Temp;Humidity;BMP_temperature;BMP_pressure;BME280_temperature;BME280_humidity;BME280_pressure;Samples;Min_cycle;Max_cycle;Signal;HPM_P1;HPM_P2
2021/06/11 00:00:44;;;;;;;10.45;7.88;;;;;;;15.40;71.12;99505.47;5091257;28;20138;-55
2021/06/11 00:03:09;;;;;;;8.15;7.18;;;;;;;15.21;71.89;99485.00;5096064;28;20465;-56
2021/06/11 00:05:35;;;;;;;10.25;7.45;;;;;;;15.19;71.91;99481.59;5110968;28;20038;-51
2021/06/11 00:08:00;;;;;;;9.65;7.72;;;;;;;14.74;72.61;99421.59;5109279;28;20031;-56
2021/06/11 00:10:26;;;;;;;9.88;7.78;;;;;;;15.10;72.12;99472.66;5111101;28;20099;-53
2021/06/11 00:12:52;;;;;;;8.05;7.10;;;;;;;15.10;72.41;99488.81;5110697;28;20035;-54
2021/06/11 00:15:18;;;;;;;9.95;7.78;;;;;;;15.09;72.80;99495.22;5109671;28;20471;-54
2021/06/11 00:17:43;;;;;;;10.82;7.60;;;;;;;15.24;72.25;99503.56;5111466;28;20471;-57
2021/06/11 00:20:09;;;;;;;7.78;6.97;;;;;;;15.26;71.95;99489.88;5110458;28;20510;-56
2021/06/11 00:22:38;;;;;;;8.32;7.40;;;;;;;15.28;71.73;99493.25;5107152;28;20127;-53
2021/06/11 00:25:09;;;;;;;8.70;7.25;;;;;;;15.03;72.56;99475.16;5090228;28;20503;-55
2021/06/11 00:27:35;;;;;;;11.88;7.78;;;;;;;15.13;72.39;99482.25;5089619;28;20082;-51
2021/06/11 00:30:01;;;;;;;10.57;8.13;;;;;;;15.10;72.39;99474.50;5089419;28;20032;-55
2021/06/11 00:32:26;;;;;;;12.38;8.05;;;;;;;15.16;72.44;99487.31;5090353;28;20046;-54
2021/06/11 00:34:52;;;;;;;9.10;7.60;;;;;;;15.21;72.26;99487.69;5091697;28;20040;-54
2021/06/11 00:37:17;;;;;;;8.27;7.30;;;;;;;15.20;72.27;99486.00;5090199;28;20047;-53
2021/06/11 00:39:43;;;;;;;11.20;7.03;;;;;;;15.12;72.61;99492.19;5089767;28;20035;-54
2021/06/11 00:42:08;;;;;;;12.32;7.88;;;;;;;14.99;73.10;99476.47;5090407;28;20407;-54
2021/06/11 00:44:35;;;;;;;9.52;7.18;;;;;;;15.15;72.59;99489.19;5109503;28;20126;-49
2021/06/11 00:47:01;;;;;;;10.95;7.50;;;;;;;15.09;72.72;99488.97;5109814;28;20558;-54
2021/06/11 00:49:26;;;;;;;8.40;7.43;;;;;;;15.24;72.03;99479.28;5110173;28;20169;-54
2021/06/11 00:51:53;;;;;;;9.80;7.65;;;;;;;14.90;72.70;99450.47;5102370;28;20411;-52
2021/06/11 00:54:19;;;;;;;10.02;7.65;;;;;;;15.02;73.16;99475.28;5090690;28;20035;-54
2021/06/11 00:56:45;;;;;;;8.85;6.95;;;;;;;15.03;73.39;99475.16;5090168;28;20051;-54
2021/06/11 00:59:11;;;;;;;8.10;7.25;;;;;;;15.15;72.44;99477.53;5089558;28;20084;-54
2021/06/11 01:01:36;;;;;;;9.98;7.57;;;;;;;15.00;72.95;99478.16;5089740;28;20032;-54
2021/06/11 01:04:02;;;;;;;8.35;7.00;;;;;;;14.96;73.16;99479.50;5108954;28;20039;-54
2021/06/11 01:06:28;;;;;;;8.48;7.28;;;;;;;14.90;72.78;99475.59;5110564;28;20039;-50
2021/06/11 01:08:55;;;;;;;8.57;6.80;;;;;;;14.60;73.09;99431.09;5110294;28;20035;-55
2021/06/11 01:11:22;;;;;;;10.52;6.63;;;;;;;14.89;72.08;99467.66;5110139;28;20056;-48
2021/06/11 01:13:47;;;;;;;10.52;7.40;;;;;;;15.07;72.07;99489.13;5108465;28;20043;-52
2021/06/11 01:16:13;;;;;;;8.55;7.03;;;;;;;15.02;72.16;99497.72;5108569;28;20629;-53
2021/06/11 01:18:39;;;;;;;8.05;6.53;;;;;;;14.94;72.70;99486.88;5108252;28;20031;-53
2021/06/11 01:21:04;;;;;;;9.40;6.50;;;;;;;14.99;72.11;99487.25;5109832;28;20130;-52
2021/06/11 01:24:13;;;;;;;8.98;6.63;;;;;;;15.03;72.28;99485.94;5107979;28;20482;-56
2021/06/11 01:26:43;;;;;;;8.40;6.63;;;;;;;14.86;73.00;99482.31;5109246;28;20475;-53
2021/06/11 01:29:13;;;;;;;10.88;7.20;;;;;;;14.86;72.92;99476.06;5109475;28;20032;-55
2021/06/11 01:31:42;;;;;;;8.52;7.40;;;;;;;14.84;72.54;99465.47;5109616;28;20040;-51
2021/06/11 01:34:13;;;;;;;9.80;7.40;;;;;;;14.98;72.02;99479.31;5109240;28;20372;-53
2021/06/11 01:37:04;;;;;;;9.10;6.90;;;;;;;15.05;72.38;99483.91;5108006;28;20161;-54
2021/06/11 01:39:32;;;;;;;8.07;6.32;;;;;;;14.95;72.32;99475.13;5113326;28;20046;-53
2021/06/11 01:41:59;;;;;;;8.27;7.13;;;;;;;15.03;72.20;99490.47;5113662;28;20084;-54
2021/06/11 01:44:26;;;;;;;9.68;6.55;;;;;;;15.12;72.05;99485.94;5112541;28;20062;-52
2021/06/11 01:46:57;;;;;;;7.68;6.25;;;;;;;15.23;71.49;99496.47;5113989;28;20031;-53
2021/06/11 01:49:24;;;;;;;7.57;6.78;;;;;;;15.21;71.58;99496.63;5112549;28;20035;-56
2021/06/11 01:51:53;;;;;;;6.72;5.95;;;;;;;15.17;71.72;99489.88;5105477;28;20055;-53
2021/06/11 01:54:19;;;;;;;7.80;6.00;;;;;;;15.14;71.84;99483.94;5092547;28;20036;-55
2021/06/11 01:56:45;;;;;;;8.35;6.47;;;;;;;15.16;71.87;99488.16;5093165;28;20153;-53
2021/06/11 01:59:12;;;;;;;7.90;6.45;;;;;;;15.26;71.59;99498.84;5092682;28;20089;-54
2021/06/11 02:01:38;;;;;;;8.40;7.00;;;;;;;15.33;71.32;99483.69;5093866;28;20031;-52
2021/06/11 02:04:05;;;;;;;10.35;6.40;;;;;;;15.32;71.03;99492.78;5092995;28;20039;-50
2021/06/11 02:06:31;;;;;;;8.30;6.15;;;;;;;14.89;71.21;99428.06;5091939;28;20081;-53
2021/06/11 02:08:57;;;;;;;8.90;6.40;;;;;;;15.34;71.32;99490.75;5092731;28;20113;-55
2021/06/11 02:11:23;;;;;;;7.88;6.00;;;;;;;15.35;70.81;99486.22;5093054;28;20199;-51
2021/06/11 02:13:51;;;;;;;8.30;6.30;;;;;;;15.41;70.78;99500.88;5092922;28;20040;-54
2021/06/11 02:16:20;;;;;;;6.95;5.80;;;;;;;15.47;70.94;99495.69;5092501;28;20036;-51
2021/06/11 02:18:46;;;;;;;7.57;5.78;;;;;;;15.62;69.78;99514.78;5090952;28;20032;-51
2021/06/11 02:21:14;;;;;;;7.40;5.90;;;;;;;15.46;70.24;99488.59;5092937;28;20039;-55
2021/06/11 02:23:40;;;;;;;8.68;6.13;;;;;;;15.52;70.27;99499.75;5092861;28;20043;-54
2021/06/11 02:26:11;;;;;;;9.07;6.50;;;;;;;15.47;70.41;99501.09;5093126;28;20634;-54
2021/06/11 02:28:36;;;;;;;7.22;5.93;;;;;;;15.58;69.66;99502.63;5092633;28;20522;-53
2021/06/11 02:31:02;;;;;;;9.02;5.72;;;;;;;15.36;70.01;99482.53;5091732;28;20040;-55
2021/06/11 02:33:28;;;;;;;6.97;5.15;;;;;;;15.55;69.12;99497.56;5092422;28;20039;-54
2021/06/11 02:35:54;;;;;;;8.32;6.28;;;;;;;15.47;69.28;99495.69;5092631;28;20032;-53
2021/06/11 02:38:20;;;;;;;7.18;6.03;;;;;;;15.41;70.17;99506.28;5093486;28;20051;-54
2021/06/11 02:40:47;;;;;;;7.95;6.40;;;;;;;15.39;70.51;99513.69;5092469;28;20044;-51
2021/06/11 02:43:15;;;;;;;9.18;6.10;;;;;;;15.33;70.78;99496.34;5105530;28;20487;-56
2021/06/11 02:46:06;;;;;;;10.35;6.30;;;;;;;15.49;70.63;99503.63;5112348;28;20482;-54
2021/06/11 02:48:45;;;;;;;7.43;6.00;;;;;;;15.71;70.02;99517.53;5112761;28;20067;-53
2021/06/11 02:51:37;;;;;;;7.82;6.00;;;;;;;15.78;69.00;99499.66;5106858;28;20028;-52
2021/06/11 02:54:07;;;;;;;7.20;6.03;;;;;;;15.60;69.14;99506.00;5091862;28;20036;-54
2021/06/11 02:57:11;;;;;;;7.53;6.25;;;;;;;15.73;68.95;99505.53;5092166;28;20149;-55
2021/06/11 02:59:41;;;;;;;7.03;5.93;;;;;;;15.73;68.40;99497.44;5077870;28;20558;-53
2021/06/11 03:02:10;;;;;;;9.50;6.07;;;;;;;15.53;68.66;99483.41;5092058;28;20078;-53
2021/06/11 03:04:40;;;;;;;6.68;5.80;;;;;;;15.55;69.27;99518.31;5101240;28;20035;-55
2021/06/11 03:07:07;;;;;;;8.13;5.95;;;;;;;15.49;69.52;99498.25;5112130;28;20082;-55
2021/06/11 03:09:35;;;;;;;8.35;6.03;;;;;;;15.57;69.60;99510.91;5112192;28;20039;-53
2021/06/11 03:12:03;;;;;;;8.85;6.28;;;;;;;15.59;69.26;99500.81;5112132;28;20062;-50
2021/06/11 03:14:31;;;;;;;6.95;5.90;;;;;;;15.58;69.37;99501.81;5110136;28;20177;-54
2021/06/11 03:17:01;;;;;;;8.88;5.95;;;;;;;15.54;70.02;99509.38;5111695;28;20483;-52
2021/06/11 03:19:32;;;;;;;9.00;5.97;;;;;;;15.61;69.45;99512.28;5112167;27;20028;-53
2021/06/11 03:22:01;;;;;;;7.82;6.47;;;;;;;15.68;69.33;99516.00;5111995;28;20035;-52
2021/06/11 03:24:32;;;;;;;11.40;5.93;;;;;;;15.73;69.22;99512.81;5111190;28;20146;-54
2021/06/11 03:27:12;;;;;;;8.90;6.35;;;;;;;15.68;69.62;99515.16;5109350;28;20575;-49
2021/06/11 03:29:47;;;;;;;7.70;6.25;;;;;;;15.85;68.74;99513.34;5111235;28;20441;-51
2021/06/11 03:32:19;;;;;;;7.10;6.40;;;;;;;15.70;69.20;99521.25;5111502;28;20059;-53
2021/06/11 03:34:47;;;;;;;8.52;6.13;;;;;;;15.70;69.33;99522.06;5101757;28;20046;-55
2021/06/11 03:37:18;;;;;;;7.75;6.18;;;;;;;15.72;68.90;99528.13;5091541;28;20100;-52
2021/06/11 03:39:46;;;;;;;9.95;6.55;;;;;;;15.75;68.72;99525.09;5096980;28;20051;-54
2021/06/11 03:42:12;;;;;;;8.48;6.63;;;;;;;15.68;68.89;99528.66;5111474;28;20043;-52
2021/06/11 03:44:42;;;;;;;7.18;5.93;;;;;;;15.62;69.43;99522.88;5111898;28;20445;-54
2021/06/11 03:47:11;;;;;;;7.50;6.78;;;;;;;15.57;69.41;99530.63;5109902;28;20035;-53
2021/06/11 03:49:37;;;;;;;8.57;6.88;;;;;;;15.52;70.00;99522.19;5111188;28;20120;-51
2021/06/11 03:52:03;;;;;;;10.88;6.93;;;;;;;15.49;69.99;99530.63;5103158;28;20027;-55
2021/06/11 03:54:30;;;;;;;10.05;6.88;;;;;;;15.53;70.20;99520.31;5090443;28;20044;-53
2021/06/11 03:56:57;;;;;;;7.22;6.53;;;;;;;15.44;69.97;99506.00;5090808;28;20434;-54
2021/06/11 03:59:24;;;;;;;9.65;7.05;;;;;;;15.46;70.04;99514.75;5091127;28;20411;-49
2021/06/11 04:01:51;;;;;;;8.27;7.07;;;;;;;15.49;70.38;99527.91;5090777;28;20106;-51
2021/06/11 04:04:17;;;;;;;8.48;6.97;;;;;;;15.41;70.87;99517.06;5090195;28;20522;-51
2021/06/11 04:06:50;;;;;;;8.93;7.28;;;;;;;15.34;71.17;99512.34;5091752;28;20405;-55
2021/06/11 04:09:19;;;;;;;13.35;7.13;;;;;;;15.11;71.16;99479.72;5091104;28;20083;-56
2021/06/11 04:11:56;;;;;;;7.53;6.82;;;;;;;15.52;71.13;99530.28;5090066;28;20044;-55
2021/06/11 04:14:29;;;;;;;10.50;7.32;;;;;;;15.31;72.04;99509.97;5090528;28;20047;-51
2021/06/11 04:16:58;;;;;;;9.13;7.22;;;;;;;15.04;71.96;99470.56;5091072;28;20059;-54
2021/06/11 04:19:33;;;;;;;8.80;6.65;;;;;;;15.18;72.92;99513.13;5109855;28;20089;-53
2021/06/11 04:22:02;;;;;;;8.13;7.15;;;;;;;15.06;72.11;99465.88;5110136;28;20042;-53
2021/06/11 04:24:33;;;;;;;10.02;7.32;;;;;;;15.34;73.31;99528.53;5110839;28;20122;-52
2021/06/11 04:26:59;;;;;;;8.27;7.47;;;;;;;15.15;73.49;99515.28;5110796;28;20491;-55
2021/06/11 04:29:27;;;;;;;8.27;7.07;;;;;;;15.24;73.91;99538.59;5110433;28;20028;-52
2021/06/11 04:31:54;;;;;;;10.27;7.22;;;;;;;15.30;72.71;99512.81;5108741;28;20089;-54
2021/06/11 04:34:20;;;;;;;8.98;7.35;;;;;;;15.19;73.46;99513.94;5110381;28;20123;-53
2021/06/11 04:36:47;;;;;;;9.55;7.10;;;;;;;15.25;73.40;99521.41;5110651;28;20082;-54
2021/06/11 04:39:13;;;;;;;8.80;6.88;;;;;;;15.20;73.69;99510.28;5110365;28;20447;-53
2021/06/11 04:41:39;;;;;;;7.70;5.85;;;;;;;15.36;73.69;99534.59;5109047;28;20042;-50
2021/06/11 04:44:07;;;;;;;7.88;6.15;;;;;;;15.46;72.92;99530.94;5108345;28;20179;-50
2021/06/11 04:46:36;;;;;;;6.63;6.03;;;;;;;15.02;73.91;99481.53;5110354;28;20039;-51
2021/06/11 04:49:04;;;;;;;7.38;6.57;;;;;;;15.39;73.58;99532.59;5110045;28;20083;-52
2021/06/11 04:51:30;;;;;;;7.65;6.20;;;;;;;15.30;73.81;99521.78;5105059;28;20071;-55
2021/06/11 04:53:56;;;;;;;7.53;6.20;;;;;;;15.28;73.54;99502.22;5089833;28;20448;-53
2021/06/11 04:56:21;;;;;;;8.90;5.78;;;;;;;15.38;73.60;99529.06;5090177;28;20036;-55
2021/06/11 04:58:48;;;;;;;10.57;6.18;;;;;;;15.16;73.97;99500.78;5090088;28;20031;-54
2021/06/11 05:01:15;;;;;;;6.53;5.93;;;;;;;15.22;74.81;99519.06;5089624;28;20325;-53
2021/06/11 05:03:40;;;;;;;8.40;6.22;;;;;;;15.31;74.65;99528.00;5088170;28;20563;-54
2021/06/11 05:06:06;;;;;;;8.95;7.68;;;;;;;15.27;74.79;99530.19;5089624;28;20124;-53
2021/06/11 05:08:32;;;;;;;6.22;5.32;;;;;;;15.28;74.48;99533.72;5090364;28;20177;-51
2021/06/11 05:10:58;;;;;;;6.55;5.72;;;;;;;14.94;74.85;99478.78;5089318;28;20147;-51
2021/06/11 05:13:24;;;;;;;5.95;5.35;;;;;;;15.26;74.20;99517.72;5089066;28;20155;-47
2021/06/11 05:15:50;;;;;;;8.32;5.70;;;;;;;14.76;74.74;99449.22;5089423;28;20039;-48
2021/06/11 05:18:15;;;;;;;6.03;5.43;;;;;;;15.23;74.90;99536.91;5089144;28;20050;-51
2021/06/11 05:20:41;;;;;;;8.70;5.75;;;;;;;15.35;74.47;99530.22;5090303;28;20032;-52
2021/06/11 05:23:08;;;;;;;6.88;5.93;;;;;;;15.39;74.49;99535.28;5089323;28;20507;-49
2021/06/11 05:25:37;;;;;;;8.52;6.03;;;;;;;15.51;74.37;99525.91;5089349;28;20135;-51
2021/06/11 05:28:03;;;;;;;8.73;6.20;;;;;;;15.43;74.80;99520.44;5089529;28;20042;-49
2021/06/11 05:30:29;;;;;;;7.28;6.57;;;;;;;15.17;74.40;99472.81;5088879;28;20043;-52
2021/06/11 05:32:55;;;;;;;6.93;6.00;;;;;;;15.54;74.36;99528.25;5089930;28;20024;-52
2021/06/11 05:35:22;;;;;;;7.18;6.57;;;;;;;15.47;75.09;99525.38;5089332;28;20028;-49
2021/06/11 05:37:48;;;;;;;7.45;6.18;;;;;;;15.57;74.42;99538.72;5089051;28;20042;-50
2021/06/11 05:40:15;;;;;;;7.03;6.22;;;;;;;15.57;74.90;99529.81;5088759;28;20051;-49
2021/06/11 05:42:40;;;;;;;9.25;6.88;;;;;;;15.61;74.66;99529.28;5088636;28;20040;-55
2021/06/11 05:45:07;;;;;;;6.82;6.22;;;;;;;15.58;75.11;99529.63;5088907;28;20034;-53
2021/06/11 05:47:36;;;;;;;7.32;6.40;;;;;;;15.76;74.48;99528.66;5090036;28;20046;-56
2021/06/11 05:50:02;;;;;;;8.05;6.70;;;;;;;15.77;73.84;99525.78;5088286;28;20406;-52
2021/06/11 05:52:28;;;;;;;8.00;7.30;;;;;;;15.75;74.08;99525.09;5088883;28;20440;-49
2021/06/11 05:54:54;;;;;;;9.55;6.75;;;;;;;15.72;74.29;99525.44;5089386;28;20036;-55
2021/06/11 05:57:19;;;;;;;7.78;6.97;;;;;;;15.73;74.32;99519.03;5087689;28;20097;-59
2021/06/11 05:59:44;;;;;;;7.53;6.75;;;;;;;15.60;74.78;99497.09;5089764;28;20121;-61
2021/06/11 06:02:10;;;;;;;7.35;6.20;;;;;;;15.90;73.07;99522.63;5089531;28;20526;-62
2021/06/11 06:04:36;;;;;;;8.48;6.45;;;;;;;15.83;73.40;99524.28;5089443;28;20373;-58
2021/06/11 06:07:01;;;;;;;6.82;6.22;;;;;;;15.85;74.42;99529.53;5089534;28;20046;-53
2021/06/11 06:09:27;;;;;;;9.82;6.68;;;;;;;16.02;73.65;99531.25;5090579;28;20031;-59
2021/06/11 06:11:52;;;;;;;8.32;6.60;;;;;;;16.16;72.93;99521.69;5089808;28;20120;-59
2021/06/11 06:14:18;;;;;;;7.32;5.80;;;;;;;16.21;73.41;99521.16;5087570;28;20044;-53
2021/06/11 06:16:44;;;;;;;6.30;5.70;;;;;;;16.38;72.97;99508.50;5088994;28;20032;-55
2021/06/11 06:19:09;;;;;;;7.78;6.63;;;;;;;16.32;72.86;99488.41;5088738;28;20057;-54
2021/06/11 06:21:35;;;;;;;7.50;6.80;;;;;;;16.50;72.80;99512.53;5090140;28;20035;-54
2021/06/11 06:24:00;;;;;;;7.50;6.63;;;;;;;16.46;72.48;99505.81;5090185;28;20115;-50
2021/06/11 06:26:27;;;;;;;8.40;7.50;;;;;;;16.57;71.72;99530.78;5092315;28;20046;-55
2021/06/11 06:28:53;;;;;;;10.00;6.90;;;;;;;16.26;71.93;99493.66;5074261;28;20032;-52
2021/06/11 06:31:19;;;;;;;11.95;7.90;;;;;;;16.45;72.55;99536.53;5092654;28;20493;-52
2021/06/11 06:33:44;;;;;;;8.00;7.20;;;;;;;16.58;71.45;99530.63;5093708;28;20154;-54
2021/06/11 06:36:10;;;;;;;9.05;8.13;;;;;;;16.57;71.36;99528.94;5092265;28;20093;-56
2021/06/11 06:38:36;;;;;;;10.20;8.20;;;;;;;16.65;70.44;99515.41;5099311;28;20083;-54
2021/06/11 06:41:02;;;;;;;10.50;9.25;;;;;;;16.77;70.58;99529.41;5111072;28;20042;-55
2021/06/11 06:43:29;;;;;;;9.93;8.90;;;;;;;16.83;70.15;99522.47;5111443;28;20024;-57
2021/06/11 06:45:56;;;;;;;9.65;8.75;;;;;;;16.80;70.08;99520.13;5109823;28;20517;-53
2021/06/11 06:48:22;;;;;;;9.57;8.68;;;;;;;16.98;70.02;99529.84;5110648;28;20035;-52
2021/06/11 06:50:47;;;;;;;12.77;8.82;;;;;;;17.17;69.62;99528.66;5110386;27;20039;-54
2021/06/11 06:53:13;;;;;;;8.13;7.32;;;;;;;17.42;69.32;99531.28;5111364;28;20410;-56
2021/06/11 06:55:38;;;;;;;12.73;8.93;;;;;;;17.59;67.77;99513.91;5110847;28;20027;-54
2021/06/11 06:58:05;;;;;;;9.82;8.50;;;;;;;18.02;66.26;99531.63;5110731;28;20035;-54
2021/06/11 07:00:32;;;;;;;10.20;9.05;;;;;;;18.02;65.91;99531.63;5110706;28;20595;-53
2021/06/11 07:03:00;;;;;;;9.80;8.90;;;;;;;17.96;65.41;99524.22;5111225;28;20474;-56
2021/06/11 07:05:25;;;;;;;11.10;9.93;;;;;;;17.83;65.92;99525.63;5111930;28;20034;-58
2021/06/11 07:07:51;;;;;;;9.93;8.98;;;;;;;17.73;66.60;99528.59;5111926;28;20027;-57
2021/06/11 07:10:16;;;;;;;11.23;10.13;;;;;;;17.33;67.51;99496.13;5100806;28;20034;-58
2021/06/11 07:12:42;;;;;;;11.18;10.07;;;;;;;17.27;67.76;99517.66;5091909;28;20040;-57
2021/06/11 07:15:11;;;;;;;11.88;10.57;;;;;;;17.04;69.37;99513.81;5091235;28;20058;-54
2021/06/11 07:17:40;;;;;;;11.57;10.48;;;;;;;17.10;69.84;99530.38;5091616;28;20584;-58
2021/06/11 07:20:08;;;;;;;13.10;11.38;;;;;;;17.17;68.80;99524.09;5090624;28;20036;-56
2021/06/11 07:22:33;;;;;;;13.60;12.23;;;;;;;17.02;69.86;99532.09;5114076;27;20106;-59
2021/06/11 07:25:04;;;;;;;14.60;11.90;;;;;;;17.00;69.53;99517.03;5110570;28;20498;-57
2021/06/11 07:27:33;;;;;;;13.32;11.95;;;;;;;16.91;70.12;99524.31;5106645;28;20030;-58
2021/06/11 07:30:17;;;;;;;13.40;12.10;;;;;;;16.84;70.33;99517.91;5110336;28;20035;-59
2021/06/11 07:32:43;;;;;;;14.48;12.98;;;;;;;16.97;70.22;99523.63;5111863;28;20032;-57
2021/06/11 07:35:13;;;;;;;12.57;11.45;;;;;;;17.01;70.26;99530.41;5097846;28;20024;-54
2021/06/11 07:37:40;;;;;;;14.80;13.13;;;;;;;17.12;69.73;99528.31;5091282;28;20109;-59
2021/06/11 07:40:07;;;;;;;14.13;12.23;;;;;;;17.27;69.62;99529.28;5091000;28;20476;-58
2021/06/11 07:42:33;;;;;;;14.85;12.02;;;;;;;17.26;69.80;99505.97;5090555;28;20039;-59
2021/06/11 07:44:58;;;;;;;14.52;11.85;;;;;;;17.63;69.29;99527.94;5090651;28;20453;-58
2021/06/11 07:47:24;;;;;;;10.48;9.45;;;;;;;18.01;67.51;99528.09;5100027;28;20120;-60
2021/06/11 07:49:49;;;;;;;13.60;9.93;;;;;;;18.39;66.21;99530.03;5109729;28;20482;-56
2021/06/11 07:52:15;;;;;;;9.07;8.20;;;;;;;18.54;65.05;99529.19;5099411;28;20218;-55
2021/06/11 07:54:40;;;;;;;9.65;7.82;;;;;;;18.61;65.70;99536.41;5090788;28;20032;-58
2021/06/11 07:57:07;;;;;;;7.43;6.47;;;;;;;18.75;64.35;99513.06;5090281;28;20036;-57
2021/06/11 07:59:32;;;;;;;5.18;4.70;;;;;;;18.62;63.23;99464.06;5099204;28;20042;-54
2021/06/11 08:01:58;;;;;;;5.88;5.38;;;;;;;18.90;63.35;99523.94;5109924;28;20043;-54
2021/06/11 08:04:23;;;;;;;7.97;5.57;;;;;;;19.04;63.42;99526.88;5111378;28;20040;-59
2021/06/11 08:06:49;;;;;;;6.55;5.38;;;;;;;19.18;62.43;99519.75;5111033;28;20110;-61
2021/06/11 08:09:14;;;;;;;5.78;5.18;;;;;;;19.24;62.30;99519.00;5110833;28;20063;-59
2021/06/11 08:11:40;;;;;;;5.75;5.15;;;;;;;19.29;62.87;99504.88;5104130;27;20055;-55
2021/06/11 08:14:05;;;;;;;5.68;5.00;;;;;;;19.44;61.86;99524.72;5103627;28;20363;-55
2021/06/11 08:16:31;;;;;;;5.22;4.80;;;;;;;19.20;61.49;99528.56;5104669;28;20047;-52
2021/06/11 08:18:56;;;;;;;5.35;4.47;;;;;;;18.41;62.22;99435.81;5092013;28;20404;-54
2021/06/11 08:21:22;;;;;;;8.82;6.15;;;;;;;18.60;62.86;99523.06;5108867;28;20084;-55
2021/06/11 08:23:48;;;;;;;6.55;5.93;;;;;;;18.43;63.74;99538.59;5108054;28;20104;-53
2021/06/11 08:26:14;;;;;;;7.95;6.35;;;;;;;18.16;65.14;99543.56;5100329;28;20038;-56
2021/06/11 08:28:40;;;;;;;8.40;6.38;;;;;;;18.07;65.71;99530.09;5109892;28;20035;-56
2021/06/11 08:31:06;;;;;;;7.47;6.47;;;;;;;17.96;65.41;99524.22;5109817;27;20035;-55
2021/06/11 08:33:33;;;;;;;8.43;6.50;;;;;;;17.90;66.53;99537.44;5110084;28;20024;-55
2021/06/11 08:35:58;;;;;;;7.72;7.03;;;;;;;17.92;66.67;99537.25;5110219;28;20033;-55
2021/06/11 08:38:24;;;;;;;8.57;7.68;;;;;;;18.03;65.70;99536.03;5094917;28;20130;-56
2021/06/11 08:40:50;;;;;;;9.00;8.10;;;;;;;18.02;65.84;99543.34;5109082;28;20360;-55
2021/06/11 08:43:18;;;;;;;9.43;8.32;;;;;;;17.86;66.59;99543.41;5109745;28;20678;-53
2021/06/11 08:45:44;;;;;;;9.80;8.90;;;;;;;17.73;67.50;99544.84;5110406;28;20123;-59
2021/06/11 08:48:10;;;;;;;10.00;8.52;;;;;;;17.75;66.65;99520.28;5108976;28;20451;-56
2021/06/11 08:50:36;;;;;;;9.70;8.80;;;;;;;17.77;67.61;99548.00;5093776;28;20112;-59
2021/06/11 08:53:04;;;;;;;12.55;10.18;;;;;;;17.89;66.39;99545.75;5106056;28;20031;-59
2021/06/11 08:55:30;;;;;;;12.98;11.63;;;;;;;18.01;65.80;99554.31;5109775;28;20028;-58
2021/06/11 08:57:56;;;;;;;13.30;10.82;;;;;;;17.76;66.72;99549.03;5108655;28;20039;-59
2021/06/11 09:00:22;;;;;;;13.27;11.65;;;;;;;17.61;67.48;99557.06;5109601;28;20020;-58
2021/06/11 09:03:10;;;;;;;13.02;11.60;;;;;;;17.51;68.77;99546.44;5097301;28;20047;-58
2021/06/11 09:05:37;;;;;;;13.10;11.90;;;;;;;17.54;67.71;99547.97;5089544;28;20032;-63
2021/06/11 09:08:24;;;;;;;16.92;12.88;;;;;;;17.57;67.13;99523.25;5089318;28;20048;-60
2021/06/11 09:10:52;;;;;;;13.88;12.57;;;;;;;17.54;67.15;99537.97;5088649;28;20101;-56
2021/06/11 09:13:29;;;;;;;17.27;14.23;;;;;;;17.25;68.56;99531.34;5097504;28;20062;-58
2021/06/11 09:16:23;;;;;;;23.48;17.83;;;;;;;17.38;68.66;99538.06;5098792;28;20039;-57
2021/06/11 09:18:54;;;;;;;13.90;10.00;;;;;;;17.75;66.46;99553.63;5110118;28;20038;-58
2021/06/11 09:21:43;;;;;;;14.10;12.63;;;;;;;17.57;67.03;99540.31;5102255;28;20058;-59
2021/06/11 09:24:27;;;;;;;17.48;12.70;;;;;;;17.45;67.54;99536.34;5096358;28;20028;-60
2021/06/11 09:27:04;;;;;;;13.70;12.32;;;;;;;17.35;68.53;99537.38;5109927;28;20491;-60
2021/06/11 09:29:39;;;;;;;15.77;12.90;;;;;;;17.34;68.45;99535.69;5109135;28;20027;-53
2021/06/11 09:32:28;;;;;;;13.07;11.73;;;;;;;17.71;67.34;99551.44;5109273;28;20502;-57
2021/06/11 09:35:00;;;;;;;12.45;11.02;;;;;;;17.61;67.14;99535.41;5108820;28;20098;-57
2021/06/11 09:37:33;;;;;;;13.27;11.98;;;;;;;17.36;67.99;99533.69;5109831;28;20099;-62
2021/06/11 09:40:05;;;;;;;11.80;10.45;;;;;;;17.48;68.18;99553.06;5109194;28;20110;-57
2021/06/11 09:42:33;;;;;;;17.85;12.00;;;;;;;17.73;67.22;99542.13;5109142;28;20432;-60
2021/06/11 09:45:04;;;;;;;12.13;10.88;;;;;;;17.34;67.47;99470.75;5106913;28;20491;-60
2021/06/11 09:47:32;;;;;;;11.73;10.63;;;;;;;17.87;67.26;99535.09;5096417;28;20130;-58
2021/06/11 09:50:04;;;;;;;16.98;11.82;;;;;;;17.55;67.55;99471.16;5098790;28;20522;-58
2021/06/11 09:52:34;;;;;;;13.60;10.88;;;;;;;18.04;67.14;99529.59;5108341;28;20131;-59
2021/06/11 09:55:05;;;;;;;12.68;11.38;;;;;;;18.11;65.59;99486.38;5109583;28;20490;-57
2021/06/11 09:57:36;;;;;;;14.30;11.70;;;;;;;18.43;64.74;99514.22;5109044;28;20505;-57
2021/06/11 10:00:04;;;;;;;15.05;11.70;;;;;;;18.33;64.99;99499.06;5109184;28;20036;-58
2021/06/11 10:02:31;;;;;;;14.38;12.80;;;;;;;18.54;64.86;99521.06;5113808;28;20380;-58
2021/06/11 10:04:57;;;;;;;17.85;13.10;;;;;;;18.72;64.52;99547.88;5103461;28;20135;-60
2021/06/11 10:07:24;;;;;;;16.15;13.00;;;;;;;18.26;65.23;99476.44;5093902;28;20118;-57
2021/06/11 10:09:50;;;;;;;16.65;13.35;;;;;;;18.40;65.07;99472.06;5094081;28;20046;-58
2021/06/11 10:12:15;;;;;;;15.88;13.38;;;;;;;18.78;64.47;99507.28;5094052;28;20048;-56
2021/06/11 10:14:41;;;;;;;17.85;14.10;;;;;;;18.96;63.87;99530.50;5097957;28;20176;-58
2021/06/11 10:17:07;;;;;;;15.55;13.35;;;;;;;18.82;64.63;99529.44;5114021;28;20104;-58
2021/06/11 10:19:35;;;;;;;19.98;14.82;;;;;;;18.83;64.79;99516.75;5114370;28;20073;-54
2021/06/11 10:22:00;;;;;;;17.17;14.10;;;;;;;18.94;64.31;99527.97;5114251;28;20033;-58
2021/06/11 10:24:27;;;;;;;16.73;14.23;;;;;;;19.01;64.71;99540.81;5113955;28;20046;-58
2021/06/11 10:26:53;;;;;;;22.63;15.85;;;;;;;19.13;64.35;99530.34;5113288;28;20431;-60
2021/06/11 10:29:20;;;;;;;18.65;14.35;;;;;;;19.21;64.03;99525.66;5093779;28;20040;-58
2021/06/11 10:31:47;;;;;;;21.13;14.43;;;;;;;19.35;63.70;99540.25;5093770;28;20036;-58
2021/06/11 10:34:13;;;;;;;18.20;15.35;;;;;;;19.28;63.49;99536.59;5093570;28;20039;-57
2021/06/11 10:36:43;;;;;;;20.30;16.30;;;;;;;19.02;64.78;99537.06;5093050;28;20032;-57
2021/06/11 10:39:15;;;;;;;20.75;16.90;;;;;;;18.77;66.07;99540.84;5094198;28;20032;-56
2021/06/11 10:42:06;;;;;;;18.25;16.23;;;;;;;18.79;66.55;99538.78;5113872;28;20131;-58
2021/06/11 10:44:40;;;;;;;18.08;15.27;;;;;;;18.82;66.49;99544.91;5113745;28;20126;-58
2021/06/11 10:47:17;;;;;;;19.65;16.67;;;;;;;19.00;66.12;99544.56;5113379;28;20425;-56
2021/06/11 10:49:55;;;;;;;19.58;17.42;;;;;;;19.10;65.61;99547.00;5111042;28;20035;-54
2021/06/11 10:52:39;;;;;;;19.35;17.35;;;;;;;19.02;65.69;99548.75;5093383;28;20515;-57
2021/06/11 10:55:14;;;;;;;23.65;17.50;;;;;;;18.73;66.64;99544.94;5092798;28;20038;-58
2021/06/11 10:57:44;;;;;;;19.23;16.95;;;;;;;18.60;67.24;99551.00;5093010;28;20487;-59
2021/06/11 11:00:31;;;;;;;19.92;17.13;;;;;;;18.61;66.91;99533.72;5094333;28;20479;-57
2021/06/11 11:02:58;;;;;;;20.25;16.52;;;;;;;18.36;67.58;99531.22;5093042;28;20503;-58
2021/06/11 11:05:30;;;;;;;22.63;17.17;;;;;;;18.38;68.34;99543.75;5092854;28;20119;-59
2021/06/11 11:07:58;;;;;;;18.73;15.88;;;;;;;18.40;68.32;99549.81;5093162;28;20047;-55
2021/06/11 11:10:36;;;;;;;20.80;17.77;;;;;;;18.64;67.63;99546.06;5091529;28;20510;-56
2021/06/11 11:13:06;;;;;;;18.52;16.52;;;;;;;18.49;67.12;99519.75;5112739;28;20081;-57
2021/06/11 11:15:44;;;;;;;19.38;17.27;;;;;;;18.37;67.11;99491.41;5113318;28;20027;-59
2021/06/11 11:18:23;;;;;;;22.92;17.40;;;;;;;18.66;67.50;99535.88;5113244;28;20043;-57
2021/06/11 11:20:51;;;;;;;19.40;16.98;;;;;;;18.43;67.90;99517.78;5113050;28;20031;-54
2021/06/11 11:23:21;;;;;;;19.23;16.38;;;;;;;18.41;68.18;99511.69;5094972;28;20119;-57
2021/06/11 11:25:47;;;;;;;20.25;17.35;;;;;;;18.51;68.22;99522.28;5092789;28;20036;-60
2021/06/11 11:28:15;;;;;;;21.08;16.90;;;;;;;18.57;68.12;99518.00;5092522;28;20036;-56
2021/06/11 11:30:43;;;;;;;19.02;17.02;;;;;;;18.69;67.98;99530.09;5092543;28;20096;-59
2021/06/11 11:33:09;;;;;;;20.15;17.58;;;;;;;18.74;67.73;99524.94;5093583;28;20039;-56